Terminal Aerodrome Forecast
Issued by NWS Sterling, VA

Current Version | Previous Version | Graphics & Text | Print | Product List | Glossary On
Versions: 1 2 3 4 5 6 7 8 9 10 11 12 13 14 15 16 17 18 19 20 21 22 23 24 25 26 27 28 29 30
000
FTUS41 KLWX 211437 AAA
TAFIAD
TAF AMD
KIAD 211437Z 2115/2218 21012G19KT P6SM SCT050 SCT250
     FM212100 22007KT P6SM VCSH BKN040
     FM220300 27005KT P6SM VCSH BKN025
     FM220500 36006KT P6SM VCSH BKN025
     FM221200 01006KT 6SM -RADZ BR OVC025
     FM221500 03007KT 4SM -RADZ BR OVC010=

USA.gov is the U.S. government's official web portal to all federal, state and local government web resources and services.